Time;durP1;ratioP1;P1;durP2;ratioP2;P2;SDS_P1;SDS_P2;PMS_P1;PMS_P2;Temp;Humidity;BMP_temperature;BMP_pressure;BME280_temperature;BME280_humidity;BME280_pressure;Samples;Min_cycle;Max_cycle;Signal;HPM_P1;HPM_P2
2022/05/13 00:00:44;;;;;;;0.23;0.23;;;;;;;;;;1827607;78;26720;-47
2022/05/13 00:03:11;;;;;;;0.30;0.30;;;;;;;;;;1809309;79;26210;-47
2022/05/13 00:05:40;;;;;;;0.30;0.30;;;;;;;;;;1813935;79;26335;-46
2022/05/13 00:08:08;;;;;;;0.20;0.20;;;;;;;;;;1813432;78;26662;-46
2022/05/13 00:10:35;;;;;;;0.20;0.20;;;;;;;;;;1835689;78;26754;-45
2022/05/13 00:13:04;;;;;;;0.55;0.30;;;;;;;;;;1820903;77;26386;-44
2022/05/13 00:15:32;;;;;;;0.30;0.30;;;;;;;;;;1805516;77;26256;-46
2022/05/13 00:18:00;;;;;;;0.82;0.40;;;;;;;;;;1805790;79;26353;-47
2022/05/13 00:20:28;;;;;;;0.28;0.28;;;;;;;;;;1805643;79;26666;-47
2022/05/13 00:22:57;;;;;;;0.25;0.25;;;;;;;;;;1805525;79;26600;-47
2022/05/13 00:25:26;;;;;;;0.20;0.20;;;;;;;;;;1805498;78;26667;-44
2022/05/13 00:27:57;;;;;;;0.30;0.30;;;;;;;;;;1805385;79;26263;-45
2022/05/13 00:30:24;;;;;;;0.20;0.20;;;;;;;;;;1805592;79;26369;-48
2022/05/13 00:32:52;;;;;;;0.30;0.30;;;;;;;;;;1805420;79;26407;-47
2022/05/13 00:35:20;;;;;;;0.30;0.30;;;;;;;;;;1828768;77;26736;-47
2022/05/13 00:37:47;;;;;;;0.30;0.30;;;;;;;;;;1835042;78;26241;-45
2022/05/13 00:40:15;;;;;;;0.20;0.20;;;;;;;;;;1835669;78;26355;-45
2022/05/13 00:42:44;;;;;;;0.30;0.30;;;;;;;;;;1835443;78;26261;-45
2022/05/13 00:45:14;;;;;;;0.20;0.20;;;;;;;;;;1807337;78;26674;-48
2022/05/13 00:47:42;;;;;;;0.30;0.30;;;;;;;;;;1805676;78;26819;-48
2022/05/13 00:50:10;;;;;;;0.50;0.50;;;;;;;;;;1805492;79;26271;-47
2022/05/13 00:52:39;;;;;;;0.57;0.33;;;;;;;;;;1805551;79;26810;-49
2022/05/13 00:55:08;;;;;;;0.45;0.30;;;;;;;;;;1805358;79;26291;-45
2022/05/13 00:57:36;;;;;;;0.37;0.37;;;;;;;;;;1810523;78;26277;-45
2022/05/13 01:00:05;;;;;;;0.30;0.30;;;;;;;;;;1813419;78;26423;-45
2022/05/13 01:02:32;;;;;;;0.30;0.30;;;;;;;;;;1816891;78;26265;-47
2022/05/13 01:05:00;;;;;;;0.20;0.20;;;;;;;;;;1830445;78;26459;-46
2022/05/13 01:07:28;;;;;;;0.30;0.30;;;;;;;;;;1841714;77;26818;-46
2022/05/13 01:09:56;;;;;;;0.20;0.20;;;;;;;;;;1830112;77;26267;-47
2022/05/13 01:12:25;;;;;;;0.40;0.40;;;;;;;;;;1829330;78;26238;-45
2022/05/13 01:14:54;;;;;;;0.30;0.30;;;;;;;;;;1829055;77;26556;-51
2022/05/13 01:20:12;;;;;;;0.25;0.25;;;;;;;;;;1829223;77;26429;-47
2022/05/13 01:22:42;;;;;;;0.30;0.30;;;;;;;;;;1829389;78;26742;-44
2022/05/13 01:25:11;;;;;;;0.20;0.20;;;;;;;;;;1855946;77;26330;-47
2022/05/13 01:27:40;;;;;;;0.30;0.30;;;;;;;;;;1858988;77;26293;-45
2022/05/13 01:30:08;;;;;;;0.40;0.40;;;;;;;;;;1860090;77;26292;-45
2022/05/13 01:32:35;;;;;;;0.30;0.30;;;;;;;;;;1836778;77;26346;-47
2022/05/13 01:35:03;;;;;;;0.30;0.30;;;;;;;;;;1829560;78;26292;-46
2022/05/13 01:37:31;;;;;;;0.30;0.30;;;;;;;;;;1829574;78;26341;-45
2022/05/13 01:39:58;;;;;;;0.30;0.30;;;;;;;;;;1829390;78;26227;-46
2022/05/13 01:42:25;;;;;;;0.47;0.20;;;;;;;;;;1829551;77;26286;-47
2022/05/13 01:47:35;;;;;;;0.37;0.37;;;;;;;;;;1920763;74;27963;-49
2022/05/13 01:50:03;;;;;;;0.28;0.28;;;;;;;;;;1881144;76;26304;-45
2022/05/13 01:52:31;;;;;;;0.30;0.30;;;;;;;;;;1881054;76;26266;-46
2022/05/13 01:54:58;;;;;;;0.28;0.28;;;;;;;;;;1880775;75;26341;-45
2022/05/13 01:57:25;;;;;;;0.28;0.20;;;;;;;;;;1881250;76;26578;-47
2022/05/13 01:59:54;;;;;;;0.20;0.20;;;;;;;;;;1880913;75;26195;-47
2022/05/13 02:02:21;;;;;;;0.40;0.40;;;;;;;;;;1870631;75;26260;-47
2022/05/13 02:04:49;;;;;;;0.35;0.35;;;;;;;;;;1879241;76;26254;-45
2022/05/13 02:07:16;;;;;;;0.30;0.30;;;;;;;;;;1853952;75;26718;-45
2022/05/13 02:09:44;;;;;;;0.40;0.40;;;;;;;;;;1859136;76;26274;-46
2022/05/13 02:12:11;;;;;;;0.25;0.25;;;;;;;;;;1845432;78;26844;-48
2022/05/13 02:14:38;;;;;;;0.30;0.30;;;;;;;;;;1848658;76;26277;-44
2022/05/13 02:17:06;;;;;;;0.30;0.30;;;;;;;;;;1850997;75;26355;-47
2022/05/13 02:19:33;;;;;;;0.33;0.33;;;;;;;;;;1879413;76;26266;-47
2022/05/13 02:22:00;;;;;;;0.23;0.23;;;;;;;;;;1876071;76;26202;-48
2022/05/13 02:24:27;;;;;;;0.30;0.30;;;;;;;;;;1849614;77;26326;-43
2022/05/13 02:26:55;;;;;;;0.30;0.30;;;;;;;;;;1849332;77;26350;-50
2022/05/13 02:29:22;;;;;;;0.30;0.30;;;;;;;;;;1849388;77;26209;-44
2022/05/13 02:31:49;;;;;;;0.40;0.40;;;;;;;;;;1849371;77;26217;-47
2022/05/13 02:34:16;;;;;;;0.23;0.23;;;;;;;;;;1849414;77;26330;-48
2022/05/13 02:36:44;;;;;;;0.30;0.30;;;;;;;;;;1849792;77;26339;-46
2022/05/13 02:39:11;;;;;;;0.60;0.60;;;;;;;;;;1858595;76;26246;-45
2022/05/13 02:41:38;;;;;;;0.50;0.50;;;;;;;;;;1844105;76;26705;-47
2022/05/13 02:44:06;;;;;;;0.30;0.30;;;;;;;;;;1863856;75;26722;-47
2022/05/13 02:46:33;;;;;;;0.30;0.30;;;;;;;;;;1870258;75;26282;-47
2022/05/13 02:49:00;;;;;;;0.33;0.33;;;;;;;;;;1881187;76;26312;-45
2022/05/13 02:51:29;;;;;;;0.30;0.30;;;;;;;;;;1881373;76;26344;-46
2022/05/13 02:53:56;;;;;;;0.30;0.30;;;;;;;;;;1870229;75;26799;-47
2022/05/13 02:56:24;;;;;;;0.30;0.30;;;;;;;;;;1852773;76;26831;-46
2022/05/13 02:58:52;;;;;;;0.30;0.30;;;;;;;;;;1878583;75;26258;-45
2022/05/13 03:01:20;;;;;;;0.30;0.30;;;;;;;;;;1919823;74;26320;-47
2022/05/13 03:03:48;;;;;;;0.30;0.30;;;;;;;;;;1897658;75;26721;-43
2022/05/13 03:06:16;;;;;;;0.50;0.50;;;;;;;;;;1892996;75;26312;-44
2022/05/13 03:08:44;;;;;;;0.35;0.35;;;;;;;;;;1905067;75;26234;-45
2022/05/13 03:11:12;;;;;;;0.45;0.45;;;;;;;;;;1878574;76;26281;-44
2022/05/13 03:13:39;;;;;;;0.30;0.30;;;;;;;;;;1878682;76;26257;-46
2022/05/13 03:16:11;;;;;;;0.42;0.42;;;;;;;;;;1868544;75;26281;-43
2022/05/13 03:18:42;;;;;;;0.40;0.40;;;;;;;;;;1863746;75;26266;-46
2022/05/13 03:21:10;;;;;;;0.23;0.23;;;;;;;;;;1848801;77;26335;-44
2022/05/13 03:23:38;;;;;;;0.33;0.33;;;;;;;;;;1848780;77;26324;-44
2022/05/13 03:26:05;;;;;;;0.30;0.30;;;;;;;;;;1848563;77;26250;-47
2022/05/13 03:28:33;;;;;;;0.20;0.20;;;;;;;;;;1867377;75;26429;-47
2022/05/13 03:31:01;;;;;;;0.30;0.30;;;;;;;;;;1880668;76;26275;-45
2022/05/13 03:33:28;;;;;;;0.50;0.50;;;;;;;;;;1879921;75;26241;-48
2022/05/13 03:35:56;;;;;;;0.40;0.40;;;;;;;;;;1878534;76;26501;-44
2022/05/13 03:38:23;;;;;;;0.30;0.30;;;;;;;;;;1878563;76;26984;-46
2022/05/13 03:40:51;;;;;;;0.50;0.50;;;;;;;;;;1850910;75;26277;-48
2022/05/13 03:43:19;;;;;;;0.20;0.20;;;;;;;;;;1854597;76;26239;-44
2022/05/13 03:45:46;;;;;;;0.40;0.40;;;;;;;;;;1883924;76;26313;-44
2022/05/13 03:48:14;;;;;;;0.47;0.23;;;;;;;;;;1880565;75;26363;-47
2022/05/13 03:50:42;;;;;;;0.28;0.28;;;;;;;;;;1872808;75;26257;-47
2022/05/13 03:53:10;;;;;;;0.30;0.30;;;;;;;;;;1849120;75;26359;-48
2022/05/13 03:55:37;;;;;;;0.20;0.20;;;;;;;;;;1848842;77;26731;-46
2022/05/13 03:58:05;;;;;;;0.40;0.40;;;;;;;;;;1852997;76;26638;-46
2022/05/13 04:00:33;;;;;;;0.30;0.30;;;;;;;;;;1852347;76;26328;-46
2022/05/13 04:03:00;;;;;;;0.30;0.30;;;;;;;;;;1848895;77;26623;-45
2022/05/13 04:10:58;;;;;;;0.30;0.30;;;;;;;;;;1848933;77;26360;-45
2022/05/13 04:16:11;;;;;;;0.45;0.45;;;;;;;;;;1848595;76;26234;-46
2022/05/13 04:18:43;;;;;;;0.40;0.40;;;;;;;;;;1852806;76;26261;-45
2022/05/13 04:21:12;;;;;;;0.30;0.30;;;;;;;;;;1848624;77;26875;-46
2022/05/13 04:23:40;;;;;;;0.30;0.30;;;;;;;;;;1848806;77;26723;-42
2022/05/13 04:26:08;;;;;;;0.40;0.40;;;;;;;;;;1848778;77;26261;-44
2022/05/13 04:28:35;;;;;;;0.40;0.40;;;;;;;;;;1848556;77;26261;-45
2022/05/13 04:31:02;;;;;;;0.40;0.40;;;;;;;;;;1848890;77;26264;-47
2022/05/13 04:33:30;;;;;;;0.40;0.40;;;;;;;;;;1860065;76;26230;-44
2022/05/13 04:35:57;;;;;;;0.25;0.25;;;;;;;;;;1880390;76;26312;-46
2022/05/13 04:38:24;;;;;;;0.30;0.30;;;;;;;;;;1880227;75;26247;-45
2022/05/13 04:40:52;;;;;;;0.60;0.50;;;;;;;;;;1880573;76;26715;-46
2022/05/13 04:43:19;;;;;;;0.50;0.40;;;;;;;;;;1880707;75;26498;-46
2022/05/13 04:45:46;;;;;;;0.50;0.40;;;;;;;;;;1903266;75;26251;-46
2022/05/13 04:48:21;;;;;;;0.30;0.30;;;;;;;;;;1890386;75;26348;-44
2022/05/13 04:50:52;;;;;;;0.30;0.30;;;;;;;;;;1895974;75;26307;-45
2022/05/13 04:53:22;;;;;;;0.35;0.35;;;;;;;;;;1896016;75;26223;-45
2022/05/13 04:55:50;;;;;;;0.42;0.42;;;;;;;;;;1896011;75;26273;-44
2022/05/13 04:58:18;;;;;;;0.40;0.40;;;;;;;;;;1886773;75;26606;-44
2022/05/13 05:00:47;;;;;;;0.23;0.23;;;;;;;;;;1895338;75;26257;-44
2022/05/13 05:03:15;;;;;;;0.30;0.30;;;;;;;;;;1895991;75;26249;-45
2022/05/13 05:05:43;;;;;;;0.50;0.40;;;;;;;;;;1895994;75;26708;-44
2022/05/13 05:08:11;;;;;;;0.30;0.30;;;;;;;;;;1891722;75;26245;-46
2022/05/13 05:10:39;;;;;;;0.33;0.33;;;;;;;;;;1863999;75;26767;-47
2022/05/13 05:13:07;;;;;;;0.40;0.40;;;;;;;;;;1863821;76;26330;-45
2022/05/13 05:15:36;;;;;;;0.28;0.28;;;;;;;;;;1875129;75;26340;-43
2022/05/13 05:18:03;;;;;;;0.40;0.40;;;;;;;;;;1895527;75;26253;-46
2022/05/13 05:20:31;;;;;;;0.40;0.40;;;;;;;;;;1895681;75;26808;-45
2022/05/13 05:22:58;;;;;;;0.40;0.40;;;;;;;;;;1895958;75;26270;-44
2022/05/13 05:25:28;;;;;;;0.35;0.35;;;;;;;;;;1895988;75;26258;-46
2022/05/13 05:27:54;;;;;;;0.30;0.30;;;;;;;;;;1895674;75;26411;-50
2022/05/13 05:30:22;;;;;;;0.33;0.33;;;;;;;;;;1895978;75;26250;-53
2022/05/13 05:32:49;;;;;;;0.30;0.30;;;;;;;;;;1888887;75;26686;-46
2022/05/13 05:35:18;;;;;;;0.30;0.30;;;;;;;;;;1895872;75;26339;-44
2022/05/13 05:37:46;;;;;;;0.40;0.40;;;;;;;;;;1895990;75;26270;-50
2022/05/13 05:40:13;;;;;;;0.40;0.40;;;;;;;;;;1896006;75;26286;-48
2022/05/13 05:42:41;;;;;;;0.37;0.37;;;;;;;;;;1894531;75;26285;-47
2022/05/13 05:45:10;;;;;;;0.40;0.40;;;;;;;;;;1893281;75;26289;-45
2022/05/13 05:47:38;;;;;;;0.40;0.40;;;;;;;;;;1892657;75;26231;-45
2022/05/13 05:50:07;;;;;;;0.25;0.25;;;;;;;;;;1880295;75;26312;-46
2022/05/13 05:52:34;;;;;;;0.47;0.45;;;;;;;;;;1880381;75;26659;-45
2022/05/13 05:57:57;;;;;;;0.47;0.40;;;;;;;;;;1880167;76;26263;-49
2022/05/13 06:00:25;;;;;;;0.30;0.30;;;;;;;;;;1907905;75;26772;-45
2022/05/13 06:02:53;;;;;;;0.45;0.45;;;;;;;;;;1919572;75;26328;-45
2022/05/13 06:05:20;;;;;;;0.20;0.20;;;;;;;;;;1919630;75;26199;-47
2022/05/13 06:07:49;;;;;;;0.20;0.20;;;;;;;;;;1915100;74;26267;-46
2022/05/13 06:10:17;;;;;;;0.40;0.40;;;;;;;;;;1876828;76;26309;-44
2022/05/13 06:12:44;;;;;;;0.30;0.30;;;;;;;;;;1852809;76;26627;-47
2022/05/13 06:15:12;;;;;;;0.40;0.40;;;;;;;;;;1851379;76;26556;-47
2022/05/13 06:17:47;;;;;;;0.35;0.35;;;;;;;;;;1880512;75;26239;-44
2022/05/13 06:20:15;;;;;;;1.05;0.47;;;;;;;;;;1880370;76;26211;-47
2022/05/13 06:22:43;;;;;;;0.55;0.55;;;;;;;;;;1872566;75;26347;-45
2022/05/13 06:25:12;;;;;;;0.30;0.30;;;;;;;;;;1848752;77;26246;-45
2022/05/13 06:27:39;;;;;;;0.40;0.40;;;;;;;;;;1848902;77;26347;-45
2022/05/13 06:30:11;;;;;;;0.40;0.40;;;;;;;;;;1848546;77;26301;-50
2022/05/13 06:32:38;;;;;;;0.60;0.60;;;;;;;;;;1848746;77;26331;-49
2022/05/13 06:35:07;;;;;;;0.20;0.20;;;;;;;;;;1848891;77;26685;-45
2022/05/13 06:37:34;;;;;;;0.40;0.40;;;;;;;;;;1848820;77;26259;-46
2022/05/13 06:40:02;;;;;;;0.30;0.30;;;;;;;;;;1848521;77;26645;-48
2022/05/13 06:42:29;;;;;;;0.28;0.28;;;;;;;;;;1856874;76;26270;-48
2022/05/13 06:44:56;;;;;;;0.40;0.40;;;;;;;;;;1875806;76;26239;-46
2022/05/13 06:47:24;;;;;;;0.33;0.33;;;;;;;;;;1880592;76;26731;-46
2022/05/13 06:49:51;;;;;;;0.50;0.50;;;;;;;;;;1880646;75;26833;-46
2022/05/13 06:52:18;;;;;;;0.30;0.30;;;;;;;;;;1880707;76;26204;-45
2022/05/13 06:54:46;;;;;;;0.50;0.50;;;;;;;;;;1880877;76;26293;-46
2022/05/13 06:57:13;;;;;;;0.30;0.30;;;;;;;;;;1880690;75;26259;-44
2022/05/13 06:59:40;;;;;;;0.93;0.37;;;;;;;;;;1872044;75;26239;-44
2022/05/13 07:02:07;;;;;;;0.30;0.30;;;;;;;;;;1880618;76;26379;-44
2022/05/13 07:04:35;;;;;;;0.30;0.30;;;;;;;;;;1878114;75;26310;-46
2022/05/13 07:07:02;;;;;;;0.42;0.42;;;;;;;;;;1871004;76;26308;-47
2022/05/13 07:09:30;;;;;;;0.53;0.53;;;;;;;;;;1865909;75;26296;-49
2022/05/13 07:11:57;;;;;;;0.30;0.30;;;;;;;;;;1869543;76;26320;-48
2022/05/13 07:14:24;;;;;;;0.20;0.20;;;;;;;;;;1849190;75;26277;-48
2022/05/13 07:16:51;;;;;;;0.30;0.30;;;;;;;;;;1876466;76;26263;-49
2022/05/13 07:19:20;;;;;;;0.33;0.33;;;;;;;;;;1880358;75;26247;-45
2022/05/13 07:21:47;;;;;;;0.40;0.40;;;;;;;;;;1880559;76;26317;-45
2022/05/13 07:24:15;;;;;;;0.30;0.30;;;;;;;;;;1858169;76;26346;-45
2022/05/13 07:26:42;;;;;;;0.60;0.40;;;;;;;;;;1848707;77;26405;-45
2022/05/13 07:29:09;;;;;;;0.30;0.30;;;;;;;;;;1848726;76;26799;-47
2022/05/13 07:31:38;;;;;;;0.40;0.40;;;;;;;;;;1848562;77;26617;-45
2022/05/13 07:34:05;;;;;;;0.23;0.23;;;;;;;;;;1867797;76;26247;-46
2022/05/13 07:36:33;;;;;;;0.45;0.45;;;;;;;;;;1880688;76;26313;-46
2022/05/13 07:41:46;;;;;;;0.40;0.40;;;;;;;;;;1912877;75;26311;-46
2022/05/13 07:44:14;;;;;;;0.33;0.33;;;;;;;;;;1897356;75;26310;-46
2022/05/13 07:46:41;;;;;;;0.40;0.40;;;;;;;;;;1874138;76;26279;-46
2022/05/13 07:49:08;;;;;;;0.40;0.40;;;;;;;;;;1880486;75;26276;-45
2022/05/13 07:51:36;;;;;;;0.25;0.25;;;;;;;;;;1880354;76;26200;-47
2022/05/13 07:54:03;;;;;;;0.37;0.37;;;;;;;;;;1880223;76;26203;-47
2022/05/13 07:56:31;;;;;;;0.30;0.30;;;;;;;;;;1880170;76;26321;-44
2022/05/13 07:59:00;;;;;;;0.40;0.40;;;;;;;;;;1880866;75;26364;-46
2022/05/13 08:01:27;;;;;;;0.30;0.30;;;;;;;;;;1894343;75;26288;-49
2022/05/13 08:03:56;;;;;;;0.40;0.40;;;;;;;;;;1850131;76;26753;-47
2022/05/13 08:06:23;;;;;;;0.40;0.40;;;;;;;;;;1876844;76;26332;-47
2022/05/13 08:08:55;;;;;;;0.30;0.30;;;;;;;;;;1870041;75;26222;-49
2022/05/13 08:11:19;;;;;;;0.30;0.30;;;;;;;;;;1848491;77;26332;-45
2022/05/13 08:13:47;;;;;;;0.40;0.40;;;;;;;;;;1848947;77;26332;-46
2022/05/13 08:16:16;;;;;;;0.40;0.40;;;;;;;;;;1848837;75;26350;-45
2022/05/13 08:18:43;;;;;;;0.30;0.30;;;;;;;;;;1848885;77;26328;-44
2022/05/13 08:21:11;;;;;;;0.30;0.20;;;;;;;;;;1848661;77;27399;-46
2022/05/13 08:23:38;;;;;;;0.33;0.33;;;;;;;;;;1865555;75;26710;-46
2022/05/13 08:26:06;;;;;;;0.25;0.25;;;;;;;;;;1880582;76;26250;-45
2022/05/13 08:28:34;;;;;;;0.20;0.20;;;;;;;;;;1880587;76;26525;-44
2022/05/13 08:31:01;;;;;;;0.37;0.37;;;;;;;;;;1880558;76;26247;-46
2022/05/13 08:33:28;;;;;;;0.50;0.50;;;;;;;;;;1869960;76;26249;-43
2022/05/13 08:35:57;;;;;;;0.40;0.40;;;;;;;;;;1910331;75;26352;-46
2022/05/13 08:38:26;;;;;;;0.33;0.33;;;;;;;;;;1912930;75;26333;-44
2022/05/13 08:40:58;;;;;;;0.30;0.30;;;;;;;;;;1913021;75;26239;-45
2022/05/13 08:43:29;;;;;;;0.30;0.30;;;;;;;;;;1903432;75;27188;-44
2022/05/13 08:45:59;;;;;;;0.30;0.30;;;;;;;;;;1869373;75;26325;-47
2022/05/13 08:48:30;;;;;;;0.30;0.30;;;;;;;;;;1880439;76;26329;-47
2022/05/13 08:51:08;;;;;;;0.30;0.30;;;;;;;;;;1895568;75;26415;-46
2022/05/13 08:53:54;;;;;;;0.30;0.30;;;;;;;;;;1876101;75;26775;-47
2022/05/13 08:56:23;;;;;;;0.30;0.30;;;;;;;;;;1867250;75;26330;-44
2022/05/13 08:58:51;;;;;;;0.30;0.30;;;;;;;;;;1886984;75;26262;-45
2022/05/13 09:01:20;;;;;;;0.23;0.23;;;;;;;;;;1895758;75;26227;-46
2022/05/13 09:03:50;;;;;;;0.20;0.20;;;;;;;;;;1895555;75;26270;-46
2022/05/13 09:06:19;;;;;;;0.28;0.28;;;;;;;;;;1895837;75;26595;-45
2022/05/13 09:08:46;;;;;;;0.30;0.30;;;;;;;;;;1883969;74;26283;-44
2022/05/13 09:11:33;;;;;;;0.30;0.30;;;;;;;;;;1864088;77;26781;-44
2022/05/13 09:14:19;;;;;;;0.30;0.30;;;;;;;;;;1864141;77;26730;-47
2022/05/13 09:16:54;;;;;;;0.30;0.30;;;;;;;;;;1891058;75;26254;-47
2022/05/13 09:19:25;;;;;;;0.20;0.20;;;;;;;;;;1886152;75;26699;-47
2022/05/13 09:21:53;;;;;;;0.23;0.23;;;;;;;;;;1863274;76;26208;-44
2022/05/13 09:24:20;;;;;;;0.30;0.30;;;;;;;;;;1863856;77;26338;-44
2022/05/13 09:26:47;;;;;;;0.30;0.30;;;;;;;;;;1864199;76;26791;-44
2022/05/13 09:29:19;;;;;;;0.20;0.20;;;;;;;;;;1863778;77;26272;-44
2022/05/13 09:31:48;;;;;;;0.40;0.40;;;;;;;;;;1864121;74;26220;-44
2022/05/13 09:34:29;;;;;;;0.30;0.30;;;;;;;;;;1882113;76;26315;-47
2022/05/13 09:37:13;;;;;;;0.30;0.30;;;;;;;;;;1894499;76;26277;-46
2022/05/13 09:39:43;;;;;;;0.30;0.30;;;;;;;;;;1894113;76;26614;-44
2022/05/13 09:42:21;;;;;;;0.40;0.40;;;;;;;;;;1880039;75;26232;-46
2022/05/13 09:44:48;;;;;;;0.20;0.20;;;;;;;;;;1880359;75;26269;-46
2022/05/13 09:47:17;;;;;;;0.20;0.20;;;;;;;;;;1895853;75;26286;-46
2022/05/13 09:49:48;;;;;;;0.20;0.20;;;;;;;;;;1895721;75;26745;-46
2022/05/13 09:52:17;;;;;;;0.23;0.23;;;;;;;;;;1895735;75;26314;-45
2022/05/13 09:54:47;;;;;;;0.30;0.30;;;;;;;;;;1928401;74;26278;-46
2022/05/13 09:57:16;;;;;;;0.35;0.30;;;;;;;;;;1921324;74;26746;-44
2022/05/13 09:59:45;;;;;;;0.20;0.20;;;;;;;;;;1882084;75;26179;-46
2022/05/13 10:02:26;;;;;;;0.23;0.23;;;;;;;;;;1895741;75;26727;-45
2022/05/13 10:04:54;;;;;;;0.23;0.23;;;;;;;;;;1879093;74;26273;-45
2022/05/13 10:07:23;;;;;;;0.20;0.20;;;;;;;;;;1864029;77;26287;-44
2022/05/13 10:15:26;;;;;;;0.20;0.20;;;;;;;;;;1893252;74;26293;-45
2022/05/13 10:17:55;;;;;;;0.20;0.20;;;;;;;;;;1895570;75;26253;-44
2022/05/13 10:20:23;;;;;;;0.30;0.30;;;;;;;;;;1896024;75;26695;-44
2022/05/13 10:22:53;;;;;;;0.30;0.30;;;;;;;;;;1896015;75;26634;-48
2022/05/13 10:25:23;;;;;;;0.37;0.23;;;;;;;;;;1895805;75;26258;-45
2022/05/13 10:27:53;;;;;;;0.30;0.30;;;;;;;;;;1873047;74;26586;-47
2022/05/13 10:30:31;;;;;;;0.30;0.30;;;;;;;;;;1863941;77;26312;-45
2022/05/13 10:33:00;;;;;;;0.28;0.28;;;;;;;;;;1868177;75;26270;-46
2022/05/13 10:35:28;;;;;;;0.30;0.30;;;;;;;;;;1894450;76;26659;-44
2022/05/13 10:37:57;;;;;;;0.20;0.20;;;;;;;;;;1886535;74;26201;-48
2022/05/13 10:40:26;;;;;;;0.20;0.20;;;;;;;;;;1864052;77;26218;-45
2022/05/13 10:43:04;;;;;;;0.20;0.20;;;;;;;;;;1864206;77;26256;-48
2022/05/13 10:45:32;;;;;;;0.20;0.20;;;;;;;;;;1846286;75;26296;-46
2022/05/13 10:48:01;;;;;;;0.23;0.20;;;;;;;;;;1864336;77;26668;-47
2022/05/13 10:50:38;;;;;;;0.15;0.15;;;;;;;;;;1858083;74;26259;-44
2022/05/13 10:53:07;;;;;;;0.25;0.25;;;;;;;;;;1848645;77;26320;-44
2022/05/13 10:55:53;;;;;;;0.10;0.10;;;;;;;;;;1848429;77;26254;-48
2022/05/13 10:58:21;;;;;;;0.20;0.20;;;;;;;;;;1848665;77;27402;-44
2022/05/13 11:00:53;;;;;;;0.20;0.20;;;;;;;;;;1870120;75;26742;-44
2022/05/13 11:03:28;;;;;;;0.20;0.20;;;;;;;;;;1880516;76;26624;-48
2022/05/13 11:06:16;;;;;;;0.30;0.25;;;;;;;;;;1872413;76;26266;-45
2022/05/13 11:08:57;;;;;;;0.20;0.20;;;;;;;;;;1727181;81;26692;-44
2022/05/13 11:11:37;;;;;;;0.10;0.10;;;;;;;;;;1718060;83;26341;-48
2022/05/13 11:14:15;;;;;;;0.20;0.20;;;;;;;;;;1800648;76;26316;-46
2022/05/13 11:16:46;;;;;;;0.10;0.10;;;;;;;;;;1774084;78;26410;-46
2022/05/13 11:19:34;;;;;;;0.25;0.25;;;;;;;;;;1848475;77;26311;-47
2022/05/13 11:22:13;;;;;;;0.62;0.20;;;;;;;;;;1849336;76;26231;-47
2022/05/13 11:27:40;;;;;;;0.17;0.17;;;;;;;;;;1850612;75;26402;-45
2022/05/13 11:30:21;;;;;;;0.17;0.17;;;;;;;;;;1863122;76;26271;-46
2022/05/13 11:32:50;;;;;;;0.20;0.20;;;;;;;;;;1877881;76;26317;-47
2022/05/13 11:35:36;;;;;;;0.23;0.23;;;;;;;;;;1836295;78;26285;-44
2022/05/13 11:38:04;;;;;;;0.20;0.20;;;;;;;;;;1836671;77;26336;-44
2022/05/13 11:40:51;;;;;;;0.10;0.10;;;;;;;;;;1846119;75;26266;-46
2022/05/13 11:43:32;;;;;;;0.30;0.30;;;;;;;;;;1855913;76;26258;-45
2022/05/13 11:46:01;;;;;;;0.10;0.10;;;;;;;;;;1872274;76;26249;-44
2022/05/13 11:48:29;;;;;;;0.20;0.20;;;;;;;;;;1880327;76;26356;-44
2022/05/13 11:51:01;;;;;;;0.20;0.20;;;;;;;;;;1877513;75;26227;-46
2022/05/13 11:53:32;;;;;;;0.28;0.28;;;;;;;;;;1862224;76;26288;-45
2022/05/13 11:56:01;;;;;;;0.10;0.10;;;;;;;;;;1858035;76;26842;-48
2022/05/13 11:58:47;;;;;;;0.23;0.23;;;;;;;;;;1870648;75;26721;-44
2022/05/13 12:01:16;;;;;;;0.23;0.23;;;;;;;;;;1866957;74;26253;-44
2022/05/13 12:03:43;;;;;;;0.20;0.20;;;;;;;;;;1929023;74;26242;-43
2022/05/13 12:06:12;;;;;;;0.20;0.20;;;;;;;;;;1929385;74;26579;-44
2022/05/13 12:08:41;;;;;;;0.30;0.30;;;;;;;;;;1900446;74;26805;-47
2022/05/13 12:11:21;;;;;;;0.10;0.10;;;;;;;;;;1864078;76;26377;-46
2022/05/13 12:14:09;;;;;;;0.20;0.20;;;;;;;;;;1864614;74;26257;-47
2022/05/13 12:16:55;;;;;;;0.10;0.10;;;;;;;;;;1864225;74;26609;-44
2022/05/13 12:19:32;;;;;;;0.25;0.25;;;;;;;;;;1864164;76;26269;-46
2022/05/13 12:22:01;;;;;;;0.20;0.20;;;;;;;;;;1866505;76;26716;-44
2022/05/13 12:24:29;;;;;;;0.10;0.10;;;;;;;;;;1905938;74;26815;-45
2022/05/13 12:27:03;;;;;;;0.20;0.20;;;;;;;;;;1929364;74;26249;-45
2022/05/13 12:29:38;;;;;;;0.20;0.20;;;;;;;;;;1928204;74;26452;-45
2022/05/13 12:32:07;;;;;;;0.10;0.10;;;;;;;;;;1929231;74;26235;-46
2022/05/13 12:37:37;;;;;;;0.20;0.20;;;;;;;;;;1864124;77;26309;-45
2022/05/13 12:40:06;;;;;;;0.20;0.20;;;;;;;;;;1863898;77;26206;-45
2022/05/13 12:42:41;;;;;;;0.20;0.20;;;;;;;;;;1863875;75;26734;-47
2022/05/13 12:45:11;;;;;;;0.30;0.30;;;;;;;;;;1870950;75;26594;-45
2022/05/13 12:47:56;;;;;;;0.10;0.10;;;;;;;;;;1875817;74;26312;-43
2022/05/13 12:50:28;;;;;;;0.20;0.20;;;;;;;;;;1863033;76;26328;-44
2022/05/13 12:52:56;;;;;;;0.20;0.20;;;;;;;;;;1848633;77;26335;-47
2022/05/13 12:55:25;;;;;;;0.23;0.23;;;;;;;;;;1848854;77;26245;-45
2022/05/13 12:57:54;;;;;;;0.20;0.20;;;;;;;;;;1848925;75;26633;-46
2022/05/13 13:00:22;;;;;;;0.20;0.20;;;;;;;;;;1867270;76;26763;-44
2022/05/13 13:02:51;;;;;;;0.10;0.10;;;;;;;;;;1864907;76;26246;-48
2022/05/13 13:05:26;;;;;;;0.28;0.20;;;;;;;;;;1848818;77;26249;-45
2022/05/13 13:07:55;;;;;;;0.20;0.20;;;;;;;;;;1857121;75;26265;-46
2022/05/13 13:10:23;;;;;;;0.20;0.20;;;;;;;;;;1860653;75;26312;-47
2022/05/13 13:12:52;;;;;;;0.23;0.23;;;;;;;;;;1848864;77;26229;-45
2022/05/13 13:15:23;;;;;;;0.10;0.10;;;;;;;;;;1847936;76;26312;-43
2022/05/13 13:18:04;;;;;;;0.15;0.15;;;;;;;;;;1848938;77;26271;-46
2022/05/13 13:20:32;;;;;;;0.17;0.17;;;;;;;;;;1848427;75;26402;-45
2022/05/13 13:23:01;;;;;;;0.20;0.20;;;;;;;;;;1864622;76;26231;-44
2022/05/13 13:25:35;;;;;;;0.20;0.20;;;;;;;;;;1880271;76;26309;-45
2022/05/13 13:28:04;;;;;;;0.10;0.10;;;;;;;;;;1880077;76;26267;-47
2022/05/13 13:30:32;;;;;;;0.20;0.20;;;;;;;;;;1880359;76;26262;-47
2022/05/13 13:33:00;;;;;;;0.93;0.42;;;;;;;;;;1897743;75;26359;-45
2022/05/13 13:35:32;;;;;;;0.10;0.10;;;;;;;;;;1848805;77;26289;-47
2022/05/13 13:38:00;;;;;;;0.10;0.10;;;;;;;;;;1848897;77;26265;-45
2022/05/13 13:40:30;;;;;;;0.20;0.20;;;;;;;;;;1848741;77;26339;-45
2022/05/13 13:42:59;;;;;;;0.20;0.20;;;;;;;;;;1859844;75;26271;-46
2022/05/13 13:45:27;;;;;;;0.10;0.10;;;;;;;;;;1868001;76;26259;-47
2022/05/13 13:47:56;;;;;;;0.30;0.30;;;;;;;;;;1880457;75;26636;-46
2022/05/13 13:50:24;;;;;;;0.20;0.20;;;;;;;;;;1880307;76;26873;-45
2022/05/13 13:52:52;;;;;;;0.20;0.20;;;;;;;;;;1869737;75;26332;-48
2022/05/13 13:55:27;;;;;;;0.20;0.20;;;;;;;;;;1871109;75;26259;-47
2022/05/13 13:58:02;;;;;;;0.20;0.20;;;;;;;;;;1878189;76;26250;-45
2022/05/13 14:00:33;;;;;;;0.10;0.10;;;;;;;;;;1875508;76;26283;-45
2022/05/13 14:03:04;;;;;;;0.35;0.35;;;;;;;;;;1880414;75;26224;-43
2022/05/13 14:05:45;;;;;;;0.20;0.20;;;;;;;;;;1880327;76;26271;-47
2022/05/13 14:08:13;;;;;;;0.10;0.10;;;;;;;;;;1872365;76;26383;-46
2022/05/13 14:10:42;;;;;;;0.20;0.20;;;;;;;;;;1868984;76;26286;-46
2022/05/13 14:13:10;;;;;;;0.23;0.23;;;;;;;;;;1839941;76;26324;-45
2022/05/13 14:15:39;;;;;;;0.20;0.20;;;;;;;;;;1847223;76;26534;-48
2022/05/13 14:18:08;;;;;;;0.10;0.10;;;;;;;;;;1906796;75;26278;-47
2022/05/13 14:20:37;;;;;;;0.10;0.10;;;;;;;;;;1912677;75;27123;-44
2022/05/13 14:23:06;;;;;;;0.23;0.20;;;;;;;;;;1912947;75;26269;-47
2022/05/13 14:25:38;;;;;;;0.30;0.30;;;;;;;;;;1909057;75;26336;-44
2022/05/13 14:28:07;;;;;;;0.20;0.20;;;;;;;;;;1892883;75;26729;-45
2022/05/13 14:30:35;;;;;;;0.30;0.30;;;;;;;;;;1848594;77;26350;-47
2022/05/13 14:33:03;;;;;;;0.10;0.10;;;;;;;;;;1848667;77;26774;-44
2022/05/13 14:35:31;;;;;;;0.20;0.20;;;;;;;;;;1848822;77;26285;-47
2022/05/13 14:38:00;;;;;;;0.20;0.20;;;;;;;;;;1848671;77;26281;-46
2022/05/13 14:40:32;;;;;;;0.20;0.20;;;;;;;;;;1897494;75;26615;-47
2022/05/13 14:43:04;;;;;;;0.15;0.15;;;;;;;;;;1892011;75;26192;-44
2022/05/13 14:45:36;;;;;;;0.23;0.20;;;;;;;;;;1870834;76;26291;-43
2022/05/13 14:48:21;;;;;;;0.17;0.17;;;;;;;;;;1880448;76;26305;-43
2022/05/13 14:50:59;;;;;;;0.17;0.17;;;;;;;;;;1880210;75;26317;-47
2022/05/13 14:53:27;;;;;;;0.20;0.20;;;;;;;;;;1895338;75;26300;-44
2022/05/13 14:55:56;;;;;;;0.10;0.10;;;;;;;;;;1895974;75;26352;-44
2022/05/13 14:58:40;;;;;;;0.15;0.15;;;;;;;;;;1887835;75;26658;-46
2022/05/13 15:01:08;;;;;;;0.30;0.30;;;;;;;;;;1880255;74;26234;-45
2022/05/13 15:03:37;;;;;;;0.20;0.20;;;;;;;;;;1892975;75;26230;-46
2022/05/13 15:06:22;;;;;;;0.20;0.20;;;;;;;;;;1892661;75;26311;-44
2022/05/13 15:08:51;;;;;;;0.13;0.13;;;;;;;;;;1891004;75;26323;-44
2022/05/13 15:11:21;;;;;;;0.23;0.23;;;;;;;;;;1895580;75;26352;-44
2022/05/13 15:13:49;;;;;;;0.23;0.20;;;;;;;;;;1892144;75;26265;-46
2022/05/13 15:16:20;;;;;;;0.20;0.20;;;;;;;;;;1895674;75;26241;-46
2022/05/13 15:18:48;;;;;;;0.10;0.10;;;;;;;;;;1891632;75;26779;-46
2022/05/13 15:21:16;;;;;;;0.20;0.20;;;;;;;;;;1895507;75;26825;-45
2022/05/13 15:23:43;;;;;;;0.72;0.20;;;;;;;;;;1895069;74;26305;-43
2022/05/13 15:26:12;;;;;;;0.30;0.30;;;;;;;;;;1895160;75;26246;-46
2022/05/13 15:28:40;;;;;;;0.25;0.25;;;;;;;;;;1892262;74;26262;-44